createdAt,value
2019-05-12T00:02:39.645Z,4.50
2019-05-12T00:06:03.065Z,5.27
2019-05-12T00:09:28.204Z,4.03
2019-05-12T00:12:51.168Z,4.30
2019-05-12T00:16:14.318Z,3.77
2019-05-12T00:19:37.805Z,4.30
2019-05-12T00:23:19.923Z,5.27
2019-05-12T00:26:30.430Z,4.97
2019-05-12T00:29:53.856Z,4.63
2019-05-12T00:33:18.014Z,4.77
2019-05-12T00:36:41.292Z,5.00
2019-05-12T00:40:04.602Z,5.97
2019-05-12T00:43:28.186Z,7.03
2019-05-12T00:46:51.440Z,9.70
2019-05-12T00:50:14.686Z,8.80
2019-05-12T00:53:43.259Z,9.40
2019-05-12T00:57:04.369Z,7.10
2019-05-12T01:00:29.370Z,7.07
2019-05-12T01:03:52.348Z,6.37
2019-05-12T01:07:15.409Z,6.93
2019-05-12T01:10:39.237Z,6.07
2019-05-12T01:14:02.551Z,5.00
2019-05-12T01:17:28.094Z,5.80
2019-05-12T01:20:51.260Z,5.30
2019-05-12T01:24:14.350Z,5.20
2019-05-12T01:27:38.081Z,4.83
2019-05-12T01:31:03.455Z,5.13
2019-05-12T01:34:27.777Z,5.43
2019-05-12T01:37:51.602Z,4.43
2019-05-12T01:41:14.708Z,5.97
2019-05-12T01:44:38.312Z,4.50
2019-05-12T01:48:01.569Z,4.83
2019-05-12T01:51:24.631Z,4.90
2019-05-12T01:54:48.304Z,4.07
2019-05-12T01:58:11.604Z,5.20
2019-05-12T02:01:35.766Z,4.60
2019-05-12T02:05:04.102Z,4.73
2019-05-12T02:08:38.362Z,4.73
2019-05-12T02:12:01.986Z,4.97
2019-05-12T02:15:27.663Z,4.60
2019-05-12T02:18:50.268Z,4.30
2019-05-12T02:22:13.315Z,4.50
2019-05-12T02:25:38.021Z,4.60
2019-05-12T02:29:01.347Z,4.70
2019-05-12T02:32:28.426Z,4.30
2019-05-12T02:35:49.379Z,4.67
2019-05-12T02:39:15.042Z,4.37
2019-05-12T02:42:37.768Z,4.90
2019-05-12T02:46:04.918Z,3.97
2019-05-12T02:49:28.240Z,4.67
2019-05-12T02:52:54.449Z,4.50
2019-05-12T02:56:18.843Z,4.20
2019-05-12T02:59:46.226Z,5.03
2019-05-12T03:03:14.414Z,4.17
2019-05-12T03:06:37.322Z,4.53
2019-05-12T03:10:05.030Z,4.30
2019-05-12T03:13:28.049Z,4.60
2019-05-12T03:16:53.883Z,4.70
2019-05-12T03:20:16.164Z,4.27
2019-05-12T03:23:39.196Z,4.60
2019-05-12T03:27:04.392Z,4.53
2019-05-12T03:30:29.458Z,4.27
2019-05-12T03:33:59.730Z,4.30
2019-05-12T03:37:18.646Z,4.50
2019-05-12T03:40:45.023Z,5.80
2019-05-12T03:44:06.836Z,4.40
2019-05-12T03:47:29.922Z,4.60
2019-05-12T03:50:54.152Z,4.83
2019-05-12T03:54:17.457Z,5.43
2019-05-12T03:57:40.736Z,5.60
2019-05-12T04:01:04.872Z,5.67
2019-05-12T04:04:28.178Z,6.63
2019-05-12T04:07:54.487Z,5.93
2019-05-12T04:11:16.138Z,6.07
2019-05-12T04:14:40.455Z,6.70
2019-05-12T04:18:05.656Z,5.50
2019-05-12T04:21:28.781Z,6.27
2019-05-12T04:24:54.908Z,5.73
2019-05-12T04:28:16.799Z,5.30
2019-05-12T04:31:39.844Z,6.17
2019-05-12T04:35:05.042Z,5.73
2019-05-12T04:38:28.265Z,6.00
2019-05-12T04:41:54.983Z,6.30
2019-05-12T04:45:16.744Z,6.40
2019-05-12T04:48:39.762Z,5.87
2019-05-12T04:52:05.258Z,6.97
2019-05-12T04:55:27.741Z,6.93
2019-05-12T04:58:54.314Z,6.20
2019-05-12T05:02:15.716Z,7.10
2019-05-12T05:05:39.094Z,6.80
2019-05-12T05:09:05.272Z,7.00
2019-05-12T05:12:28.496Z,6.83
2019-05-12T05:15:54.370Z,7.90
2019-05-12T05:19:16.834Z,6.87
2019-05-12T05:22:40.405Z,7.53
2019-05-12T05:26:03.883Z,6.53
2019-05-12T05:29:26.878Z,7.10
2019-05-12T05:32:49.986Z,7.70
2019-05-12T05:36:19.575Z,6.43
2019-05-12T05:39:48.221Z,7.10
2019-05-12T05:43:12.405Z,6.30
2019-05-12T05:46:29.680Z,6.67
2019-05-12T05:49:53.983Z,6.70
2019-05-12T05:53:19.603Z,6.03
2019-05-12T05:56:50.723Z,6.57
2019-05-12T06:00:16.417Z,6.70
2019-05-12T06:03:33.896Z,5.73
2019-05-12T06:06:56.899Z,6.27
2019-05-12T06:10:19.954Z,5.70
2019-05-12T06:13:44.305Z,5.47
2019-05-12T06:17:08.712Z,5.13
2019-05-12T06:20:35.451Z,6.03
2019-05-12T06:23:56.917Z,5.33
2019-05-12T06:27:20.942Z,5.43
2019-05-12T06:30:47.663Z,5.97
2019-05-12T06:34:15.370Z,5.77
2019-05-12T06:37:34.936Z,4.93
2019-05-12T06:40:58.456Z,5.37
2019-05-12T06:44:24.069Z,5.13
2019-05-12T06:47:49.631Z,5.03
2019-05-12T06:51:17.035Z,5.13
2019-05-12T06:54:37.196Z,5.60
2019-05-12T06:58:00.244Z,6.07
2019-05-12T07:01:24.159Z,4.90
2019-05-12T07:04:57.245Z,4.93
2019-05-12T07:08:20.087Z,5.00
2019-05-12T07:11:47.570Z,5.63
2019-05-12T07:15:06.167Z,4.93
2019-05-12T07:18:32.827Z,4.43
2019-05-12T07:21:58.803Z,4.43
2019-05-12T07:25:22.873Z,4.23
2019-05-12T07:28:44.235Z,4.70
2019-05-12T07:32:16.442Z,3.73
2019-05-12T07:35:34.321Z,4.47
2019-05-12T07:39:03.945Z,3.90
2019-05-12T07:42:31.538Z,3.83
2019-05-12T07:46:01.831Z,3.50
2019-05-12T07:49:22.030Z,4.83
2019-05-12T07:52:44.311Z,3.70
2019-05-12T07:56:07.433Z,4.20
2019-05-12T07:59:39.522Z,3.30
2019-05-12T08:02:55.492Z,3.50
2019-05-12T08:06:18.653Z,3.53
2019-05-12T08:09:43.211Z,2.57
2019-05-12T08:13:06.596Z,2.80
2019-05-12T08:16:33.640Z,2.20
2019-05-12T08:19:54.761Z,2.53
2019-05-12T08:23:17.784Z,2.70
2019-05-12T08:26:40.901Z,2.77
2019-05-12T08:30:06.313Z,1.80
2019-05-12T08:33:29.415Z,1.90
2019-05-12T08:36:56.728Z,2.57
2019-05-12T08:40:17.654Z,2.00
2019-05-12T08:43:46.194Z,2.87
2019-05-12T08:47:06.024Z,2.20
2019-05-12T08:50:31.600Z,2.40
2019-05-12T08:54:02.171Z,2.60
2019-05-12T08:57:18.998Z,2.80
2019-05-12T09:00:46.533Z,2.10
2019-05-12T09:04:12.155Z,1.65
2019-05-12T09:07:35.797Z,1.90
2019-05-12T09:10:58.804Z,2.60
2019-05-12T09:14:23.760Z,1.95
2019-05-12T09:17:52.457Z,1.87
2019-05-12T09:21:13.888Z,1.67
2019-05-12T09:24:36.768Z,2.40
2019-05-12T09:27:59.971Z,3.15
2019-05-12T09:31:25.367Z,3.58
2019-05-12T09:34:52.890Z,2.92
2019-05-12T09:38:21.439Z,2.98
2019-05-12T09:41:42.610Z,2.58
2019-05-12T09:45:06.144Z,1.90
2019-05-12T09:48:28.277Z,2.20
2019-05-12T09:51:51.276Z,2.05
2019-05-12T09:55:14.808Z,2.45
2019-05-12T09:58:38.008Z,2.10
2019-05-12T10:02:03.528Z,2.45
2019-05-12T10:05:30.504Z,2.42
2019-05-12T10:08:54.943Z,2.20
2019-05-12T10:12:17.300Z,2.05
2019-05-12T10:15:40.387Z,2.00
2019-05-12T10:19:04.101Z,2.75
2019-05-12T10:22:35.752Z,2.83
2019-05-12T10:26:09.465Z,2.10
2019-05-12T10:29:30.630Z,1.92
2019-05-12T10:32:52.461Z,1.98
2019-05-12T10:36:15.558Z,1.72
2019-05-12T10:39:38.588Z,1.82
2019-05-12T10:43:04.161Z,1.60
2019-05-12T10:46:28.627Z,2.08
2019-05-12T10:49:53.883Z,1.95
2019-05-12T10:53:17.988Z,2.10
2019-05-12T10:56:43.683Z,2.40
2019-05-12T11:00:06.689Z,2.33
2019-05-12T11:03:29.761Z,2.05
2019-05-12T11:06:53.787Z,1.98
2019-05-12T11:10:19.997Z,1.82
2019-05-12T11:13:48.332Z,1.77
2019-05-12T11:17:09.539Z,1.57
2019-05-12T11:20:34.289Z,2.20
2019-05-12T11:23:58.103Z,1.87
2019-05-12T11:27:21.309Z,1.82
2019-05-12T11:30:44.462Z,1.40
2019-05-12T11:34:07.476Z,1.87
2019-05-12T11:37:30.597Z,1.67
2019-05-12T11:40:53.928Z,1.55
2019-05-12T11:44:17.429Z,1.72
2019-05-12T11:47:40.623Z,1.72
2019-05-12T11:51:04.028Z,1.40
2019-05-12T11:54:28.092Z,1.90
2019-05-12T11:57:51.365Z,1.40
2019-05-12T12:01:16.360Z,1.67
2019-05-12T12:04:45.281Z,1.92
2019-05-12T12:08:08.433Z,2.90
2019-05-12T12:11:31.535Z,1.60
2019-05-12T12:14:54.780Z,3.95
2019-05-12T12:18:17.788Z,1.27
2019-05-12T12:21:48.064Z,1.40
2019-05-12T12:25:11.024Z,1.32
2019-05-12T12:28:31.271Z,1.98
2019-05-12T12:31:55.463Z,1.90
2019-05-12T12:35:18.675Z,1.30
2019-05-12T12:38:43.917Z,1.25
2019-05-12T12:42:07.175Z,1.40
2019-05-12T12:45:40.628Z,1.12
2019-05-12T12:49:08.622Z,1.40
2019-05-12T12:52:29.284Z,1.30
2019-05-12T12:55:53.758Z,1.40
2019-05-12T12:59:16.961Z,1.80
2019-05-12T13:02:45.115Z,1.40
2019-05-12T13:06:04.974Z,1.60
2019-05-12T13:09:27.972Z,1.20
2019-05-12T13:12:58.672Z,1.35
2019-05-12T13:16:16.071Z,1.30
2019-05-12T13:19:39.128Z,1.27
2019-05-12T13:23:04.049Z,1.20
2019-05-12T13:26:27.206Z,1.40
2019-05-12T13:29:50.264Z,1.80
2019-05-12T13:33:15.103Z,1.20
2019-05-12T13:36:39.390Z,1.47
2019-05-12T13:40:02.729Z,1.20
2019-05-12T13:43:25.810Z,1.57
2019-05-12T13:46:53.691Z,1.52
2019-05-12T13:50:21.644Z,1.35
2019-05-12T13:53:45.456Z,1.32
2019-05-12T13:57:11.824Z,1.87
2019-05-12T14:00:30.144Z,1.40
2019-05-12T14:03:53.730Z,1.20
2019-05-12T14:07:20.442Z,1.55
2019-05-12T14:10:53.283Z,1.20
2019-05-12T14:14:14.132Z,1.10
2019-05-12T14:17:39.352Z,1.02
2019-05-12T14:21:00.858Z,1.10
2019-05-12T14:24:24.001Z,1.77
2019-05-12T14:27:47.329Z,1.47
2019-05-12T14:31:22.761Z,1.35
2019-05-12T14:34:35.598Z,1.65
2019-05-12T14:37:58.592Z,1.50
2019-05-12T14:41:26.318Z,1.70
2019-05-12T14:44:49.680Z,1.27
2019-05-12T14:48:13.683Z,1.37
2019-05-12T14:51:36.682Z,1.62
2019-05-12T14:55:03.337Z,1.70
2019-05-12T14:58:26.016Z,1.50
2019-05-12T15:01:57.452Z,1.92
2019-05-12T15:05:14.378Z,1.40
2019-05-12T15:08:40.399Z,1.57
2019-05-12T15:12:03.568Z,1.32
2019-05-12T15:15:26.739Z,1.50
2019-05-12T15:18:50.242Z,1.60
2019-05-12T15:22:14.784Z,1.90
2019-05-12T15:25:38.215Z,1.47
2019-05-12T15:29:06.916Z,1.90
2019-05-12T15:32:26.391Z,1.72
2019-05-12T15:35:49.555Z,1.52
2019-05-12T15:39:14.005Z,1.40
2019-05-12T15:42:37.249Z,1.90
2019-05-12T15:46:00.511Z,1.67
2019-05-12T15:49:26.004Z,1.22
2019-05-12T15:52:48.877Z,1.30
2019-05-12T15:56:17.574Z,1.60
2019-05-12T15:59:37.456Z,1.60
2019-05-12T16:03:00.522Z,1.40
2019-05-12T16:06:23.539Z,6.65
2019-05-12T16:09:46.640Z,2.33
2019-05-12T16:13:09.831Z,1.80
2019-05-12T16:16:41.998Z,15.48
2019-05-12T16:19:59.180Z,9.13
2019-05-12T16:23:24.935Z,2.12
2019-05-12T16:26:51.853Z,5.67
2019-05-12T16:30:13.947Z,10.88
2019-05-12T16:33:37.276Z,5.75
2019-05-12T16:37:00.290Z,4.95
2019-05-12T16:40:23.893Z,2.90
2019-05-12T16:43:47.709Z,1.90
2019-05-12T16:47:10.721Z,2.40
2019-05-12T16:50:34.550Z,1.60
2019-05-12T16:53:57.774Z,1.80
2019-05-12T16:57:20.894Z,1.98
2019-05-12T17:00:48.960Z,1.55
2019-05-12T17:04:09.071Z,1.52
2019-05-12T17:07:34.332Z,1.82
2019-05-12T17:11:15.153Z,1.72
2019-05-12T17:14:23.533Z,1.90
2019-05-12T17:17:50.763Z,1.45
2019-05-12T17:21:14.122Z,1.50
2019-05-12T17:24:37.417Z,1.55
2019-05-12T17:28:05.503Z,1.42
2019-05-12T17:31:29.887Z,1.62
2019-05-12T17:34:53.341Z,1.37
2019-05-12T17:38:19.671Z,1.50
2019-05-12T17:41:45.009Z,2.22
2019-05-12T17:45:09.297Z,1.40
2019-05-12T17:48:37.143Z,1.70
2019-05-12T17:51:57.438Z,2.00
2019-05-12T17:55:22.405Z,1.80
2019-05-12T17:58:47.586Z,1.50
2019-05-12T18:02:16.404Z,1.30
2019-05-12T18:05:36.583Z,1.75
2019-05-12T18:08:59.735Z,2.52
2019-05-12T18:12:26.727Z,1.65
2019-05-12T18:15:48.265Z,1.70
2019-05-12T18:19:15.424Z,2.30
2019-05-12T18:22:39.354Z,2.02
2019-05-12T18:26:03.131Z,2.15
2019-05-12T18:29:26.723Z,1.80
2019-05-12T18:32:57.662Z,1.98
2019-05-12T18:36:16.042Z,1.57
2019-05-12T18:39:39.241Z,1.50
2019-05-12T18:43:03.954Z,2.27
2019-05-12T18:46:27.748Z,2.20
2019-05-12T18:49:54.063Z,1.52
2019-05-12T19:23:03.616Z,1.90
2019-05-12T19:26:32.920Z,1.82
2019-05-12T19:30:39.543Z,1.90
2019-05-12T20:10:24.090Z,2.35
2019-05-12T20:13:59.305Z,3.40
